Portada
METAR-TAF:

METAR-TAF

Aeroports :

Sumburgh, Shetland, Escòcia

latitud: 59-53N, longitud: 001-18W, altitud: 5 m

Observació

L'informe es va fer fa 22 minuts, a les 04:50 UTC
Vent 6 kt del Nord-Oest
Temperatura 4°C
Humitat 87%
Pressió 1008 hPa
Visibilitat 10 km o més

METAR: EGPB 070450Z AUTO 32006KT 9999 NCD 04/02 Q1008

Hora: 06:12 (05:12 UTC)

Pronòstic

L'informe es va fer fa 3 hores i 15 minuts, a les 01:57 UTC
Pronòstic vàlid del 07 a les 03 UTC al 07 a les 12 UTC
Vent 12 kt del Nord/Nord-Oest
Visibilitat 10 km o més
Escasses núvols a una alçada de 2000 ft
Núvols disperses a una alçada de 4000 ft
Probabilitat 40% :
Temporalment
l' 07 a les 03 UTC al 07 a les 12 UTC
Visibilitat: 6000 m
xàfecs de pluja

TAF: EGPB 070157Z 0703/0712 34012KT 9999 FEW020 SCT040 PROB40 TEMPO 0703/0712 6000 SHRA

Observacions i pronòstics meteorològics de més de 4000 aeroports (METAR i TAF).

Les estacions disponibles són els punts grocs i vermells al mapa.

Posi el ratolí al punt desitjat per veure el nom de l'estació.

Feu clic per veure les observacions i els pronòstics meteorològics.

Per canviar el mapa: feu clic els botons verds amb una creu de color negre per apropar; al botó verd amb un guió per allunyar la imatge; o en les fletxes verdes per a mapes adjacents.


METAR-TAF: